createdAt,value
2022-12-23T00:01:22.082Z,11.10
2022-12-23T00:03:51.441Z,11.10
2022-12-23T00:06:24.022Z,11.20
2022-12-23T00:08:59.491Z,11.10
2022-12-23T00:11:29.075Z,11.10
2022-12-23T00:14:20.690Z,11.10
2022-12-23T00:16:54.637Z,11.10
2022-12-23T00:19:24.949Z,11.10
2022-12-23T00:21:55.190Z,11.10
2022-12-23T00:24:22.433Z,11.10
2022-12-23T00:26:51.187Z,11.10
2022-12-23T00:29:29.647Z,11.10
2022-12-23T00:31:59.493Z,11.10
2022-12-23T00:34:27.679Z,11.00
2022-12-23T00:37:14.629Z,11.10
2022-12-23T00:40:06.904Z,11.10
2022-12-23T00:43:13.347Z,11.10
2022-12-23T00:45:47.707Z,11.10
2022-12-23T00:48:42.845Z,11.00
2022-12-23T00:51:10.041Z,11.00
2022-12-23T00:53:39.434Z,11.00
2022-12-23T00:56:07.259Z,11.00
2022-12-23T00:58:42.747Z,10.90
2022-12-23T01:01:28.330Z,10.90
2022-12-23T01:04:17.568Z,10.90
2022-12-23T01:06:47.485Z,10.90
2022-12-23T01:09:17.099Z,10.80
2022-12-23T01:11:44.305Z,10.80
2022-12-23T01:14:25.260Z,10.80
2022-12-23T01:16:52.547Z,10.70
2022-12-23T01:19:22.171Z,10.70
2022-12-23T01:21:51.461Z,10.70
2022-12-23T01:24:18.778Z,10.70
2022-12-23T01:26:47.325Z,10.70
2022-12-23T01:29:17.445Z,10.60
2022-12-23T01:31:44.701Z,10.60
2022-12-23T01:34:14.716Z,10.60
2022-12-23T01:36:41.965Z,10.60
2022-12-23T01:39:09.394Z,10.60
2022-12-23T01:41:58.049Z,10.60
2022-12-23T01:45:08.887Z,10.50
2022-12-23T01:47:48.370Z,10.50
2022-12-23T01:50:24.958Z,10.50
2022-12-23T01:53:02.980Z,10.50
2022-12-23T01:55:38.766Z,10.50
2022-12-23T01:58:12.176Z,10.50
2022-12-23T02:01:00.114Z,10.50
2022-12-23T02:03:43.450Z,10.50
2022-12-23T02:06:37.835Z,10.50
2022-12-23T02:09:21.665Z,10.50
2022-12-23T02:12:21.631Z,10.50
2022-12-23T02:15:37.463Z,10.50
2022-12-23T02:18:43.783Z,10.50
2022-12-23T02:21:27.099Z,10.50
2022-12-23T02:25:02.110Z,10.50
2022-12-23T02:28:37.376Z,10.50
2022-12-23T02:31:19.195Z,10.50
2022-12-23T02:34:22.638Z,10.50
2022-12-23T02:37:25.510Z,10.50
2022-12-23T02:40:23.213Z,10.40
2022-12-23T02:43:04.992Z,10.40
2022-12-23T02:45:56.230Z,10.40
2022-12-23T02:48:36.281Z,10.40
2022-12-23T02:51:08.348Z,10.50
2022-12-23T02:53:41.174Z,10.40
2022-12-23T02:56:10.958Z,10.40
2022-12-23T02:58:47.687Z,10.40
2022-12-23T03:01:16.241Z,10.40
2022-12-23T03:03:55.512Z,10.40
2022-12-23T03:06:27.755Z,10.40
2022-12-23T03:08:59.645Z,10.40
2022-12-23T03:12:00.852Z,10.40
2022-12-23T03:14:30.849Z,10.40
2022-12-23T03:17:18.453Z,10.40
2022-12-23T03:19:51.475Z,10.40
2022-12-23T03:22:38.104Z,10.40
2022-12-23T03:25:20.322Z,10.40
2022-12-23T03:27:56.338Z,10.40
2022-12-23T03:30:24.387Z,10.40
2022-12-23T03:33:21.670Z,10.30
2022-12-23T07:12:20.180Z,10.10
2022-12-23T07:14:54.727Z,10.10
2022-12-23T07:17:21.691Z,10.10
2022-12-23T07:20:02.656Z,10.10
2022-12-23T07:22:35.430Z,10.10
2022-12-23T07:28:48.954Z,10.10
2022-12-23T07:31:16.197Z,10.10
2022-12-23T07:35:00.006Z,10.10
2022-12-23T07:37:45.373Z,10.10
2022-12-23T07:40:20.028Z,10.10
2022-12-23T07:54:21.597Z,10.10
2022-12-23T07:56:58.112Z,10.10
2022-12-23T07:59:34.099Z,10.10
2022-12-23T08:02:18.980Z,10.10
2022-12-23T08:04:55.349Z,10.10
2022-12-23T08:07:26.579Z,10.10
2022-12-23T08:09:54.597Z,10.10
2022-12-23T08:12:25.918Z,10.00
2022-12-23T08:14:58.944Z,10.00
2022-12-23T08:17:27.630Z,10.00
2022-12-23T08:19:54.584Z,10.00
2022-12-23T08:22:21.603Z,10.00
2022-12-23T08:24:48.558Z,10.00
2022-12-23T08:27:19.607Z,10.00
2022-12-23T08:29:46.897Z,10.00
2022-12-23T08:32:18.451Z,10.00
2022-12-23T08:34:45.846Z,10.00
2022-12-23T08:37:13.517Z,10.00
2022-12-23T08:39:40.976Z,10.00
2022-12-23T08:42:09.185Z,10.00
2022-12-23T08:44:38.426Z,10.00
2022-12-23T08:47:05.475Z,10.00
2022-12-23T08:49:41.775Z,10.10
2022-12-23T08:52:40.420Z,10.10
2022-12-23T08:55:10.863Z,10.10
2022-12-23T08:57:38.171Z,10.10
2022-12-23T09:00:05.879Z,10.10
2022-12-23T09:02:33.311Z,10.10
2022-12-23T09:05:00.429Z,10.10
2022-12-23T09:07:27.351Z,10.10
2022-12-23T09:10:00.523Z,10.10
2022-12-23T09:13:02.445Z,10.10
2022-12-23T09:15:42.186Z,10.10
2022-12-23T09:18:10.563Z,10.10
2022-12-23T09:20:40.122Z,10.10
2022-12-23T09:23:12.777Z,10.10
2022-12-23T09:25:45.187Z,10.20
2022-12-23T09:28:15.989Z,10.20
2022-12-23T09:30:46.159Z,10.10
2022-12-23T09:33:25.656Z,10.20
2022-12-23T09:36:09.646Z,10.20
2022-12-23T09:38:38.201Z,10.30
2022-12-23T09:41:31.214Z,10.30
2022-12-23T09:44:36.333Z,10.30
2022-12-23T09:47:06.224Z,10.30
2022-12-23T09:49:34.277Z,10.30
2022-12-23T09:52:05.164Z,10.30
2022-12-23T09:54:56.356Z,10.30
2022-12-23T09:57:58.479Z,10.30
2022-12-23T10:00:31.837Z,10.30
2022-12-23T10:03:16.959Z,10.30
2022-12-23T10:06:10.878Z,10.30
2022-12-23T10:08:41.752Z,10.40
2022-12-23T10:11:25.257Z,10.40
2022-12-23T10:14:00.760Z,10.30
2022-12-23T10:16:38.602Z,10.40
2022-12-23T10:19:22.021Z,10.40
2022-12-23T10:21:52.104Z,10.40
2022-12-23T10:24:27.411Z,10.40
2022-12-23T10:27:06.643Z,10.40
2022-12-23T10:29:35.130Z,10.40
2022-12-23T10:33:06.596Z,10.40
2022-12-23T10:35:52.973Z,10.40
2022-12-23T10:38:41.780Z,10.40
2022-12-23T10:41:16.856Z,10.40
2022-12-23T10:44:25.326Z,10.40
2022-12-23T10:47:13.812Z,10.40
2022-12-23T10:49:40.590Z,10.50
2022-12-23T10:52:21.414Z,10.40
2022-12-23T10:54:52.284Z,10.40
2022-12-23T10:57:25.550Z,10.50
2022-12-23T10:59:58.039Z,10.50
2022-12-23T11:02:34.888Z,10.50
2022-12-23T11:05:02.314Z,10.50
2022-12-23T11:07:46.592Z,10.50
2022-12-23T11:10:21.339Z,10.50
2022-12-23T11:12:51.829Z,10.50
2022-12-23T11:15:43.608Z,10.50
2022-12-23T11:18:12.746Z,10.50
2022-12-23T11:20:42.054Z,10.60
2022-12-23T11:23:36.484Z,10.60
2022-12-23T11:26:15.655Z,10.60
2022-12-23T11:28:58.854Z,10.60
2022-12-23T11:31:28.906Z,10.60
2022-12-23T11:37:24.470Z,10.60
2022-12-23T11:39:52.541Z,10.60
2022-12-23T11:42:26.628Z,10.60
2022-12-23T11:44:55.647Z,10.60
2022-12-23T11:47:22.689Z,10.60
2022-12-23T11:49:57.318Z,10.60
2022-12-23T11:52:30.492Z,10.60
2022-12-23T11:55:01.439Z,10.60
2022-12-23T11:57:43.803Z,10.60
2022-12-23T12:00:28.966Z,10.60
2022-12-23T12:02:59.902Z,10.60
2022-12-23T12:05:47.876Z,10.60
2022-12-23T12:08:20.270Z,10.60
2022-12-23T12:10:50.561Z,10.60
2022-12-23T12:13:30.848Z,10.60
2022-12-23T12:16:24.281Z,10.60
2022-12-23T12:18:56.097Z,10.60
2022-12-23T12:21:30.404Z,10.60
2022-12-23T12:24:24.376Z,10.50
2022-12-23T12:26:54.596Z,10.50
2022-12-23T12:29:39.272Z,10.50
2022-12-23T12:36:17.208Z,10.50
2022-12-23T12:39:49.319Z,10.40
2022-12-23T12:42:30.723Z,10.50
2022-12-23T12:45:23.990Z,10.40
2022-12-23T12:48:16.473Z,10.50
2022-12-23T12:51:08.924Z,10.40
2022-12-23T12:53:40.685Z,10.40
2022-12-23T12:56:30.223Z,10.40
2022-12-23T12:58:57.343Z,10.40
2022-12-23T13:01:27.068Z,10.40
2022-12-23T13:04:11.402Z,10.40
2022-12-23T13:06:52.951Z,10.40
2022-12-23T13:09:26.459Z,10.40
2022-12-23T13:12:02.963Z,10.40
2022-12-23T13:14:50.544Z,10.40
2022-12-23T13:17:47.756Z,10.40
2022-12-23T13:20:31.969Z,10.40
2022-12-23T13:23:34.369Z,10.40
2022-12-23T13:26:01.525Z,10.40
2022-12-23T13:28:39.047Z,10.40
2022-12-23T13:31:37.549Z,10.40
2022-12-23T13:34:25.398Z,10.40
2022-12-23T13:37:08.046Z,10.40
2022-12-23T13:39:57.635Z,10.30
2022-12-23T13:42:31.079Z,10.40
2022-12-23T13:44:59.228Z,10.30
2022-12-23T13:47:44.273Z,10.30
2022-12-23T13:50:20.296Z,10.30
2022-12-23T13:52:59.806Z,10.30
2022-12-23T13:55:29.576Z,10.30
2022-12-23T13:58:05.446Z,10.30
2022-12-23T14:00:34.693Z,10.20
2022-12-23T14:03:01.458Z,10.20
2022-12-23T14:05:40.909Z,10.20
2022-12-23T14:08:21.864Z,10.20
2022-12-23T14:11:02.844Z,10.10
2022-12-23T14:13:51.345Z,10.10
2022-12-23T14:16:21.326Z,10.10
2022-12-23T14:19:05.204Z,10.10
2022-12-23T14:21:38.737Z,10.10
2022-12-23T14:24:56.344Z,10.10
2022-12-23T14:27:42.444Z,10.10
2022-12-23T14:30:46.083Z,10.00
2022-12-23T14:33:25.535Z,10.00
2022-12-23T14:36:25.170Z,10.00
2022-12-23T14:39:16.413Z,10.00
2022-12-23T14:41:51.741Z,10.00
2022-12-23T14:44:43.597Z,10.00
2022-12-23T14:47:35.166Z,10.00
2022-12-23T14:50:33.907Z,10.00
2022-12-23T14:53:20.317Z,10.00
2022-12-23T14:55:48.492Z,10.00
2022-12-23T14:58:18.600Z,10.00
2022-12-23T15:01:15.126Z,10.00
2022-12-23T15:03:48.532Z,10.00
2022-12-23T15:06:32.288Z,9.90
2022-12-23T15:08:59.270Z,9.90
2022-12-23T15:11:32.032Z,9.90
2022-12-23T15:14:02.642Z,10.00
2022-12-23T15:16:34.548Z,9.90
2022-12-23T15:19:20.453Z,9.90
2022-12-23T15:21:55.643Z,9.90
2022-12-23T15:24:27.279Z,9.90
2022-12-23T15:27:24.663Z,9.90
2022-12-23T15:29:45.762Z,9.90
2022-12-23T15:32:12.692Z,9.90
2022-12-23T15:34:40.176Z,9.90
2022-12-23T15:37:28.149Z,10.00
2022-12-23T15:40:04.507Z,10.00
2022-12-23T15:42:38.367Z,10.00
2022-12-23T15:45:23.672Z,10.00
2022-12-23T15:47:50.864Z,10.00
2022-12-23T15:50:18.700Z,10.00
2022-12-23T15:52:48.699Z,10.10
2022-12-23T15:55:22.795Z,10.20
2022-12-23T15:57:51.513Z,10.40
2022-12-23T16:00:30.488Z,10.50
2022-12-23T16:03:01.131Z,10.60
2022-12-23T16:05:31.910Z,10.80
2022-12-23T16:08:30.184Z,11.00
2022-12-23T16:11:06.030Z,11.10
2022-12-23T16:13:33.379Z,11.30
2022-12-23T16:16:19.953Z,11.30
2022-12-23T16:18:48.208Z,11.40
2022-12-23T16:21:18.538Z,11.40
2022-12-23T16:23:52.811Z,11.40
2022-12-23T16:26:20.820Z,11.40
2022-12-23T16:28:54.414Z,11.40
2022-12-23T16:31:21.803Z,11.40
2022-12-23T16:33:54.391Z,11.40
2022-12-23T16:36:27.179Z,11.40
2022-12-23T16:39:02.317Z,11.40
2022-12-23T16:41:29.161Z,11.40
2022-12-23T16:43:55.977Z,11.40
2022-12-23T16:46:23.472Z,11.40
2022-12-23T16:48:53.218Z,11.50
2022-12-23T16:51:23.268Z,11.50
2022-12-23T16:53:52.681Z,11.50
2022-12-23T16:56:22.167Z,11.50
2022-12-23T16:58:49.301Z,11.50
2022-12-23T17:05:28.673Z,11.50
2022-12-23T17:07:55.474Z,11.60
2022-12-23T17:10:22.455Z,11.70
2022-12-23T17:12:50.426Z,11.60
2022-12-23T17:15:17.387Z,11.70
2022-12-23T17:17:44.522Z,11.70
2022-12-23T17:20:11.995Z,11.70
2022-12-23T17:22:39.285Z,11.70
2022-12-23T17:25:07.586Z,11.70
2022-12-23T17:27:34.373Z,11.70
2022-12-23T17:30:01.151Z,11.70
2022-12-23T17:32:28.173Z,11.80
2022-12-23T17:34:57.273Z,11.80
2022-12-23T17:37:24.583Z,11.90
2022-12-23T17:39:51.431Z,11.90
2022-12-23T17:42:25.916Z,12.00
2022-12-23T17:44:53.059Z,12.00
2022-12-23T17:47:22.600Z,12.10
2022-12-23T17:49:49.552Z,12.10
2022-12-23T17:52:21.384Z,12.10
2022-12-23T17:54:49.985Z,12.20
2022-12-23T18:18:27.207Z,12.30
2022-12-23T18:20:58.059Z,12.20
2022-12-23T18:23:30.593Z,12.30
2022-12-23T18:25:58.092Z,12.20
2022-12-23T18:28:27.418Z,12.20
2022-12-23T18:30:58.331Z,12.20
2022-12-23T18:33:28.929Z,12.20
2022-12-23T18:35:56.070Z,12.20
2022-12-23T18:39:19.965Z,12.20
2022-12-23T19:15:40.700Z,12.00
2022-12-23T19:18:07.943Z,11.90
2022-12-23T19:20:34.841Z,12.00
2022-12-23T19:23:01.783Z,12.00
2022-12-23T19:25:28.714Z,12.00
2022-12-23T19:27:55.861Z,12.00
2022-12-23T19:30:22.831Z,11.90
2022-12-23T19:32:51.682Z,12.00
2022-12-23T19:35:18.995Z,12.00
2022-12-23T19:37:46.128Z,11.90
2022-12-23T19:40:13.152Z,11.90
2022-12-23T19:42:41.163Z,11.90
2022-12-23T19:45:09.287Z,11.90
2022-12-23T19:47:36.571Z,11.90
2022-12-23T19:50:05.089Z,11.90
2022-12-23T19:52:32.368Z,11.90
2022-12-23T19:54:59.248Z,11.90
2022-12-23T19:57:26.336Z,12.00
2022-12-23T19:59:53.626Z,11.90
2022-12-23T20:02:20.689Z,11.90
2022-12-23T20:04:47.635Z,12.00
2022-12-23T20:07:14.464Z,11.90
2022-12-23T20:09:41.365Z,11.90
2022-12-23T20:12:08.255Z,11.90
2022-12-23T20:14:35.359Z,12.00
2022-12-23T20:17:02.656Z,12.00
2022-12-23T20:19:29.613Z,12.00
2022-12-23T20:21:56.475Z,12.00
2022-12-23T20:24:23.349Z,12.00
2022-12-23T20:26:50.649Z,12.00
2022-12-23T20:29:17.566Z,12.00
2022-12-23T20:31:44.690Z,12.00
2022-12-23T20:34:15.449Z,12.00
2022-12-23T20:36:49.397Z,12.00
2022-12-23T20:39:16.564Z,12.00
2022-12-23T20:41:43.602Z,12.00
2022-12-23T20:44:33.818Z,12.00
2022-12-23T20:46:57.461Z,12.00
2022-12-23T20:49:24.619Z,12.10
2022-12-23T20:51:51.512Z,12.10
2022-12-23T20:54:18.412Z,12.10
2022-12-23T20:56:45.413Z,12.10
2022-12-23T20:59:12.498Z,12.00
2022-12-23T21:01:40.773Z,12.00
2022-12-23T21:04:11.703Z,12.00
2022-12-23T21:06:39.308Z,11.90
2022-12-23T21:09:08.978Z,11.90
2022-12-23T21:11:38.937Z,11.90
2022-12-23T21:14:07.381Z,11.80
2022-12-23T21:16:36.644Z,11.80
2022-12-23T21:19:05.267Z,11.70
2022-12-23T21:21:32.562Z,11.70
2022-12-23T21:24:01.528Z,11.60
2022-12-23T21:26:30.598Z,11.60
2022-12-23T21:28:59.455Z,11.60
2022-12-23T21:31:28.179Z,11.50
2022-12-23T21:33:57.696Z,11.40
2022-12-23T21:36:28.513Z,11.40
2022-12-23T21:38:56.503Z,11.40
2022-12-23T21:41:27.371Z,11.40
2022-12-23T21:43:56.247Z,11.40
2022-12-23T21:46:24.774Z,11.40
2022-12-23T21:48:51.832Z,11.40
2022-12-23T21:51:21.595Z,11.40
2022-12-23T21:53:52.313Z,11.50
2022-12-23T21:56:30.138Z,11.50
2022-12-23T21:58:58.540Z,11.50
2022-12-23T22:01:26.184Z,11.50
2022-12-23T22:03:54.095Z,11.50
2022-12-23T22:06:27.188Z,11.50
2022-12-23T22:08:57.318Z,11.50
2022-12-23T22:11:26.970Z,11.50
2022-12-23T22:13:56.148Z,11.50
2022-12-23T22:16:27.463Z,11.50
2022-12-23T22:18:56.298Z,11.50
2022-12-23T22:21:24.623Z,11.50
2022-12-23T22:23:52.853Z,11.40
2022-12-23T22:26:26.172Z,11.40
2022-12-23T22:28:55.574Z,11.40
2022-12-23T22:31:43.212Z,11.40
2022-12-23T22:34:15.324Z,11.40
2022-12-23T22:36:42.554Z,11.40
2022-12-23T22:39:19.407Z,11.50
2022-12-23T22:41:47.294Z,11.50
2022-12-23T22:44:14.973Z,11.50
2022-12-23T22:46:42.610Z,11.50
2022-12-23T22:49:12.872Z,11.50
2022-12-23T22:51:40.929Z,11.50
2022-12-23T22:54:08.868Z,11.50
2022-12-23T22:56:35.942Z,11.50
2022-12-23T22:59:03.035Z,11.50
2022-12-23T23:01:32.133Z,11.50
2022-12-23T23:04:01.626Z,11.60
2022-12-23T23:06:34.236Z,11.60
2022-12-23T23:09:01.457Z,11.50
2022-12-23T23:11:28.514Z,11.60
2022-12-23T23:13:56.461Z,11.50
2022-12-23T23:16:24.867Z,11.50
2022-12-23T23:18:52.876Z,11.50
2022-12-23T23:21:20.067Z,11.50
2022-12-23T23:23:47.313Z,11.50
2022-12-23T23:26:15.049Z,11.50
2022-12-23T23:28:42.358Z,11.50
2022-12-23T23:31:40.679Z,11.50
2022-12-23T23:33:57.738Z,11.50
2022-12-23T23:36:25.150Z,11.50
2022-12-23T23:38:51.958Z,11.50
2022-12-23T23:41:22.828Z,11.50
2022-12-23T23:43:51.506Z,11.50
2022-12-23T23:46:18.429Z,11.40
2022-12-23T23:48:45.347Z,11.40
2022-12-23T23:51:12.749Z,11.30
2022-12-23T23:53:40.205Z,11.30
2022-12-23T23:56:08.448Z,11.30
2022-12-23T23:58:36.316Z,11.30
